createdAt,value
2023-04-28T00:01:42.223Z,19.67
2023-04-28T00:04:09.568Z,19.45
2023-04-28T00:06:37.211Z,19.45
2023-04-28T00:09:04.259Z,20.08
2023-04-28T00:11:31.177Z,19.83
2023-04-28T00:13:58.179Z,20.58
2023-04-28T00:16:25.096Z,18.27
2023-04-28T00:18:52.190Z,19.98
2023-04-28T00:21:19.100Z,19.23
2023-04-28T00:23:46.204Z,20.08
2023-04-28T00:26:13.089Z,20.23
2023-04-28T00:28:42.876Z,20.40
2023-04-28T00:31:14.836Z,20.40
2023-04-28T00:33:43.032Z,20.05
2023-04-28T00:36:11.175Z,20.63
2023-04-28T00:38:38.377Z,21.10
2023-04-28T00:41:05.768Z,20.95
2023-04-28T00:43:32.774Z,21.45
2023-04-28T00:45:59.978Z,20.95
2023-04-28T00:48:27.745Z,21.00
2023-04-28T00:50:55.064Z,21.95
2023-04-28T00:53:22.203Z,21.05
2023-04-28T00:55:52.935Z,19.95
2023-04-28T00:58:19.913Z,20.98
2023-04-28T01:00:46.937Z,20.83
2023-04-28T01:03:14.707Z,20.42
2023-04-28T01:05:41.741Z,19.95
2023-04-28T01:08:08.770Z,21.55
2023-04-28T01:10:35.647Z,21.08
2023-04-28T01:13:10.868Z,21.33
2023-04-28T01:15:38.090Z,21.23
2023-04-28T01:18:05.056Z,21.92
2023-04-28T01:20:32.154Z,21.30
2023-04-28T01:22:59.161Z,21.10
2023-04-28T01:25:26.193Z,21.30
2023-04-28T01:27:53.621Z,21.30
2023-04-28T01:30:21.150Z,21.63
2023-04-28T01:32:48.297Z,21.33
2023-04-28T01:35:15.372Z,22.95
2023-04-28T01:37:42.216Z,20.75
2023-04-28T01:40:09.748Z,22.02
2023-04-28T01:42:37.023Z,21.60
2023-04-28T01:45:05.317Z,21.52
2023-04-28T01:47:32.415Z,22.67
2023-04-28T01:49:59.542Z,20.77
2023-04-28T01:52:27.938Z,21.52
2023-04-28T01:54:55.263Z,20.15
2023-04-28T01:57:22.538Z,22.45
2023-04-28T01:59:52.065Z,21.33
2023-04-28T02:02:19.081Z,22.00
2023-04-28T02:04:46.420Z,20.95
2023-04-28T02:07:13.470Z,21.20
2023-04-28T02:09:41.766Z,21.02
2023-04-28T02:12:08.724Z,20.48
2023-04-28T02:14:36.177Z,21.90
2023-04-28T02:17:05.417Z,22.80
2023-04-28T02:19:33.478Z,22.00
2023-04-28T02:22:00.428Z,20.90
2023-04-28T02:24:27.472Z,22.23
2023-04-28T02:26:54.506Z,22.50
2023-04-28T02:29:21.534Z,21.58
2023-04-28T02:31:48.590Z,22.67
2023-04-28T02:34:15.930Z,22.52
2023-04-28T02:36:43.332Z,23.48
2023-04-28T02:39:10.694Z,23.33
2023-04-28T02:41:37.954Z,25.48
2023-04-28T02:44:05.060Z,23.08
2023-04-28T02:46:32.170Z,23.00
2023-04-28T02:48:59.176Z,23.10
2023-04-28T02:51:26.813Z,23.23
2023-04-28T02:53:53.879Z,23.63
2023-04-28T02:56:21.249Z,24.13
2023-04-28T02:58:48.309Z,23.17
2023-04-28T03:01:15.693Z,25.35
2023-04-28T03:03:42.820Z,24.35
2023-04-28T03:06:10.191Z,22.83
2023-04-28T03:08:37.457Z,25.15
2023-04-28T03:11:05.104Z,24.30
2023-04-28T03:13:32.266Z,26.20
2023-04-28T03:15:59.555Z,25.63
2023-04-28T03:18:28.177Z,25.70
2023-04-28T03:20:55.907Z,26.63
2023-04-28T03:23:22.806Z,26.75
2023-04-28T03:25:49.781Z,26.00
2023-04-28T03:28:16.985Z,27.17
2023-04-28T03:30:44.025Z,27.95
2023-04-28T03:33:11.254Z,27.58
2023-04-28T03:35:38.365Z,30.63
2023-04-28T03:38:05.399Z,28.83
2023-04-28T03:40:32.429Z,29.90
2023-04-28T03:46:16.117Z,33.10
2023-04-28T03:48:43.556Z,31.83
2023-04-28T03:51:10.692Z,34.28
2023-04-28T03:53:37.898Z,34.53
2023-04-28T03:56:05.451Z,35.30
2023-04-28T03:58:32.821Z,35.33
2023-04-28T04:01:01.688Z,37.38
2023-04-28T04:03:28.831Z,38.50
2023-04-28T04:05:57.049Z,37.63
2023-04-28T04:08:24.618Z,38.28
2023-04-28T04:10:52.684Z,38.70
2023-04-28T04:13:19.799Z,39.03
2023-04-28T04:15:47.374Z,39.15
2023-04-28T04:18:14.927Z,40.15
2023-04-28T04:21:08.199Z,41.55
2023-04-28T04:23:36.079Z,40.22
2023-04-28T04:26:03.105Z,41.60
2023-04-28T04:28:30.088Z,40.35
2023-04-28T04:30:57.080Z,41.17
2023-04-28T04:33:24.384Z,42.33
2023-04-28T04:35:51.727Z,42.88
2023-04-28T04:38:18.668Z,41.50
2023-04-28T04:40:45.630Z,43.83
2023-04-28T04:43:12.710Z,45.22
2023-04-28T04:45:45.900Z,44.40
2023-04-28T04:48:14.519Z,44.45
2023-04-28T04:50:42.616Z,42.22
2023-04-28T04:53:13.848Z,43.35
2023-04-28T04:55:41.863Z,44.15
2023-04-28T04:58:10.436Z,45.42
2023-04-28T05:00:56.216Z,42.80
2023-04-28T05:03:23.560Z,44.70
2023-04-28T05:05:50.884Z,44.38
2023-04-28T05:08:28.006Z,44.30
2023-04-28T05:10:55.125Z,43.55
2023-04-28T05:13:22.056Z,44.88
2023-04-28T05:15:55.502Z,44.35
2023-04-28T05:18:38.009Z,43.97
2023-04-28T05:21:05.487Z,44.63
2023-04-28T05:23:33.497Z,44.70
2023-04-28T05:26:00.673Z,42.53
2023-04-28T05:28:27.744Z,44.60
2023-04-28T05:30:58.340Z,45.88
2023-04-28T05:33:25.942Z,44.05
2023-04-28T05:35:53.567Z,40.90
2023-04-28T05:38:23.226Z,41.40
2023-04-28T05:40:51.300Z,37.80
2023-04-28T05:43:18.241Z,32.88
2023-04-28T05:45:46.033Z,32.90
2023-04-28T05:48:13.227Z,32.40
2023-04-28T05:50:41.267Z,31.80
2023-04-28T05:53:08.313Z,33.03
2023-04-28T05:55:36.604Z,31.23
2023-04-28T05:58:04.885Z,29.45
2023-04-28T06:00:34.573Z,29.40
2023-04-28T06:03:02.164Z,28.40
2023-04-28T06:05:29.781Z,27.05
2023-04-28T06:07:57.213Z,25.90
2023-04-28T06:10:26.721Z,25.38
2023-04-28T06:12:53.725Z,28.08
2023-04-28T06:15:21.221Z,25.63
2023-04-28T06:17:48.505Z,25.65
2023-04-28T06:20:16.857Z,21.80
2023-04-28T06:22:44.909Z,22.08
2023-04-28T06:25:12.199Z,20.15
2023-04-28T06:27:44.697Z,17.55
2023-04-28T06:30:19.452Z,15.43
2023-04-28T06:32:46.771Z,14.02
2023-04-28T06:35:14.769Z,12.48
2023-04-28T06:37:41.903Z,13.10
2023-04-28T06:40:10.234Z,14.45
2023-04-28T06:42:40.928Z,13.25
2023-04-28T06:45:12.044Z,9.57
2023-04-28T06:47:40.856Z,8.95
2023-04-28T06:50:09.918Z,8.35
2023-04-28T06:52:39.898Z,7.60
2023-04-28T06:55:09.425Z,8.30
2023-04-28T06:57:38.354Z,7.72
2023-04-28T07:00:06.259Z,7.65
2023-04-28T07:02:33.536Z,7.25
2023-04-28T07:05:00.634Z,5.20
2023-04-28T07:07:27.648Z,4.85
2023-04-28T07:09:54.573Z,3.75
2023-04-28T07:12:22.649Z,3.30
2023-04-28T07:14:51.029Z,3.20
2023-04-28T07:17:17.998Z,2.65
2023-04-28T07:19:44.946Z,2.20
2023-04-28T07:22:11.964Z,2.30
2023-04-28T07:24:39.443Z,2.70
2023-04-28T07:27:06.421Z,2.20
2023-04-28T07:29:35.269Z,2.70
2023-04-28T07:32:06.863Z,2.92
2023-04-28T07:34:37.719Z,2.88
2023-04-28T07:37:04.880Z,3.55
2023-04-28T07:39:34.688Z,3.13
2023-04-28T07:42:03.283Z,2.10
2023-04-28T07:44:30.886Z,1.77
2023-04-28T07:46:59.163Z,1.35
2023-04-28T07:49:27.426Z,1.75
2023-04-28T07:51:55.734Z,1.27
2023-04-28T07:54:23.494Z,1.20
2023-04-28T07:56:50.443Z,1.10
2023-04-28T07:59:17.325Z,1.20
2023-04-28T08:01:44.377Z,1.45
2023-04-28T08:04:11.824Z,1.58
2023-04-28T08:06:40.189Z,2.20
2023-04-28T08:09:07.332Z,2.13
2023-04-28T08:11:34.789Z,2.10
2023-04-28T08:14:03.396Z,2.20
2023-04-28T08:16:31.576Z,2.03
2023-04-28T08:19:00.104Z,1.80
2023-04-28T08:21:27.311Z,3.05
2023-04-28T08:23:54.398Z,4.63
2023-04-28T08:26:21.496Z,4.50
2023-04-28T08:28:48.593Z,4.78
2023-04-28T08:31:15.924Z,4.43
2023-04-28T08:33:48.741Z,3.88
2023-04-28T08:36:15.806Z,4.00
2023-04-28T08:38:43.891Z,2.63
2023-04-28T08:41:13.781Z,2.55
2023-04-28T08:43:42.858Z,2.05
2023-04-28T08:46:10.692Z,2.05
2023-04-28T08:48:48.860Z,2.00
2023-04-28T08:51:44.363Z,1.70
2023-04-28T08:54:25.451Z,2.07
2023-04-28T08:56:54.787Z,2.00
2023-04-28T08:59:22.235Z,2.03
2023-04-28T09:01:50.422Z,1.70
2023-04-28T09:04:19.025Z,1.55
2023-04-28T09:06:47.106Z,1.92
2023-04-28T09:09:34.750Z,2.00
2023-04-28T09:12:04.838Z,1.83
2023-04-28T09:14:33.897Z,1.58
2023-04-28T09:17:01.710Z,1.48
2023-04-28T09:19:36.436Z,1.50
2023-04-28T09:22:14.385Z,1.30
2023-04-28T09:24:53.193Z,1.45
2023-04-28T09:27:29.489Z,1.35
2023-04-28T09:29:56.880Z,1.42
2023-04-28T09:32:24.796Z,1.40
2023-04-28T09:34:54.448Z,1.38
2023-04-28T09:37:23.345Z,1.23
2023-04-28T09:39:52.172Z,2.00
2023-04-28T09:42:38.878Z,1.45
2023-04-28T09:45:11.238Z,1.42
2023-04-28T09:47:43.542Z,1.02
2023-04-28T09:50:15.072Z,1.20
2023-04-28T09:52:49.013Z,1.30
2023-04-28T09:55:16.372Z,1.45
2023-04-28T09:57:45.508Z,1.42
2023-04-28T10:00:15.137Z,1.40
2023-04-28T10:02:44.287Z,1.58
2023-04-28T10:05:13.144Z,1.98
2023-04-28T10:07:41.365Z,1.65
2023-04-28T10:10:09.180Z,1.65
2023-04-28T10:12:38.575Z,1.77
2023-04-28T10:15:07.649Z,1.90
2023-04-28T10:17:36.753Z,2.33
2023-04-28T10:20:05.296Z,2.00
2023-04-28T10:22:56.828Z,2.08
2023-04-28T10:25:36.675Z,2.05
2023-04-28T10:28:09.493Z,2.40
2023-04-28T10:30:38.004Z,2.55
2023-04-28T10:33:14.445Z,2.13
2023-04-28T10:35:45.630Z,2.20
2023-04-28T10:38:15.295Z,2.25
2023-04-28T10:41:01.662Z,2.50
2023-04-28T10:43:40.133Z,2.30
2023-04-28T10:46:08.735Z,2.17
2023-04-28T10:48:47.791Z,2.38
2023-04-28T10:51:14.703Z,2.45
2023-04-28T10:53:44.862Z,2.72
2023-04-28T10:56:13.737Z,2.47
2023-04-28T10:58:46.344Z,2.60
2023-04-28T11:01:22.896Z,2.97
2023-04-28T11:04:03.190Z,2.00
2023-04-28T11:06:35.694Z,1.98
2023-04-28T11:09:24.281Z,1.90
2023-04-28T11:12:00.944Z,1.83
2023-04-28T11:14:37.485Z,1.50
2023-04-28T11:17:11.501Z,1.85
2023-04-28T11:19:40.679Z,2.00
2023-04-28T11:22:15.723Z,1.90
2023-04-28T11:24:55.889Z,1.60
2023-04-28T11:27:27.452Z,1.40
2023-04-28T11:29:54.464Z,1.52
2023-04-28T11:32:32.943Z,1.75
2023-04-28T11:35:00.369Z,1.80
2023-04-28T11:37:27.589Z,1.98
2023-04-28T11:39:54.788Z,2.03
2023-04-28T11:42:21.684Z,2.80
2023-04-28T11:44:53.774Z,2.45
2023-04-28T11:47:31.552Z,2.03
2023-04-28T11:49:58.943Z,2.88
2023-04-28T11:52:27.387Z,2.50
2023-04-28T11:55:00.532Z,2.58
2023-04-28T11:57:28.162Z,2.45
2023-04-28T12:00:19.242Z,2.17
2023-04-28T12:02:46.513Z,2.60
2023-04-28T12:05:13.796Z,2.08
2023-04-28T12:07:45.570Z,2.42
2023-04-28T12:10:17.053Z,2.50
2023-04-28T12:12:51.926Z,2.20
2023-04-28T12:15:21.828Z,2.60
2023-04-28T12:17:50.921Z,2.72
2023-04-28T12:20:35.494Z,2.90
2023-04-28T12:23:03.047Z,2.95
2023-04-28T12:25:30.202Z,2.75
2023-04-28T12:28:04.746Z,3.20
2023-04-28T12:30:42.414Z,2.47
2023-04-28T12:33:24.196Z,2.28
2023-04-28T12:35:51.728Z,2.17
2023-04-28T12:38:18.978Z,2.88
2023-04-28T12:40:46.803Z,2.40
2023-04-28T12:43:13.743Z,2.80
2023-04-28T12:45:41.586Z,2.22
2023-04-28T12:48:08.583Z,3.13
2023-04-28T12:50:35.780Z,2.40
2023-04-28T12:53:02.688Z,2.80
2023-04-28T12:55:30.313Z,3.10
2023-04-28T12:57:57.220Z,3.08
2023-04-28T13:00:25.211Z,2.67
2023-04-28T13:02:53.363Z,2.38
2023-04-28T13:05:20.635Z,2.10
2023-04-28T13:07:49.447Z,1.75
2023-04-28T13:10:16.924Z,1.70
2023-04-28T13:12:43.896Z,2.08
2023-04-28T13:15:11.583Z,1.60
2023-04-28T13:17:38.605Z,1.52
2023-04-28T13:20:06.712Z,1.60
2023-04-28T13:22:33.674Z,1.50
2023-04-28T13:25:00.684Z,1.70
2023-04-28T13:27:30.298Z,1.50
2023-04-28T13:29:59.264Z,1.30
2023-04-28T13:32:28.102Z,1.38
2023-04-28T13:34:55.497Z,1.50
2023-04-28T13:37:22.448Z,1.40
2023-04-28T13:39:49.742Z,1.23
2023-04-28T13:42:16.775Z,1.67
2023-04-28T13:44:43.974Z,1.90
2023-04-28T13:47:11.348Z,2.10
2023-04-28T13:49:39.776Z,2.55
2023-04-28T13:52:07.118Z,2.13
2023-04-28T13:54:34.209Z,1.60
2023-04-28T13:57:01.384Z,2.15
2023-04-28T13:59:28.347Z,1.83
2023-04-28T14:01:55.543Z,2.20
2023-04-28T14:04:23.314Z,3.10
2023-04-28T14:06:50.519Z,3.65
2023-04-28T14:09:17.574Z,4.15
2023-04-28T14:11:44.630Z,3.47
2023-04-28T14:14:12.110Z,3.55
2023-04-28T14:16:39.092Z,3.00
2023-04-28T14:19:07.318Z,2.55
2023-04-28T14:21:35.193Z,1.95
2023-04-28T14:24:02.195Z,2.15
2023-04-28T14:26:29.109Z,2.28
2023-04-28T14:28:56.065Z,2.03
2023-04-28T14:31:23.167Z,2.25
2023-04-28T14:33:50.246Z,2.35
2023-04-28T14:36:17.172Z,2.08
2023-04-28T14:38:44.188Z,1.80
2023-04-28T14:41:11.517Z,2.50
2023-04-28T14:43:38.600Z,2.20
2023-04-28T14:46:06.110Z,2.65
2023-04-28T14:48:33.711Z,2.55
2023-04-28T14:51:01.142Z,2.65
2023-04-28T14:53:28.132Z,2.53
2023-04-28T14:56:04.521Z,2.70
2023-04-28T14:58:38.328Z,3.03
2023-04-28T15:01:05.367Z,2.90
2023-04-28T15:03:32.704Z,3.08
2023-04-28T15:05:59.858Z,3.92
2023-04-28T15:08:28.802Z,3.55
2023-04-28T15:10:56.870Z,4.28
2023-04-28T15:13:25.479Z,4.30
2023-04-28T15:15:52.531Z,4.10
2023-04-28T15:18:19.949Z,4.35
2023-04-28T15:20:47.464Z,4.10
2023-04-28T15:23:14.475Z,3.75
2023-04-28T15:25:41.520Z,4.43
2023-04-28T15:28:09.035Z,3.85
2023-04-28T15:30:36.677Z,5.13
2023-04-28T15:33:04.308Z,4.85
2023-04-28T15:35:32.765Z,5.45
2023-04-28T15:38:00.217Z,5.00
2023-04-28T15:40:27.259Z,5.05
2023-04-28T15:42:54.271Z,5.28
2023-04-28T15:45:22.412Z,5.00
2023-04-28T15:47:50.803Z,4.20
2023-04-28T15:50:20.304Z,4.85
2023-04-28T15:52:48.454Z,4.97
2023-04-28T15:55:20.048Z,5.32
2023-04-28T15:57:48.332Z,4.80
2023-04-28T16:00:15.949Z,5.00
2023-04-28T16:02:43.864Z,4.40
2023-04-28T16:05:11.514Z,4.43
2023-04-28T16:07:40.813Z,4.30
2023-04-28T16:10:17.567Z,4.70
2023-04-28T16:12:44.897Z,4.40
2023-04-28T16:15:13.569Z,4.75
2023-04-28T16:17:41.775Z,5.03
2023-04-28T16:20:10.003Z,4.70
2023-04-28T16:22:37.758Z,4.47
2023-04-28T16:25:05.354Z,4.93
2023-04-28T16:27:33.357Z,5.55
2023-04-28T16:30:00.653Z,4.65
2023-04-28T16:32:28.240Z,4.00
2023-04-28T16:34:58.536Z,4.60
2023-04-28T16:37:26.187Z,4.25
2023-04-28T16:39:53.301Z,4.60
2023-04-28T16:42:23.194Z,4.70
2023-04-28T16:44:52.514Z,5.35
2023-04-28T16:47:20.619Z,5.03
2023-04-28T16:49:48.345Z,4.60
2023-04-28T16:52:15.777Z,4.93
2023-04-28T16:54:42.719Z,4.10
2023-04-28T16:57:09.651Z,4.45
2023-04-28T16:59:37.587Z,4.32
2023-04-28T17:02:04.917Z,4.90
2023-04-28T17:04:32.224Z,3.67
2023-04-28T17:07:00.340Z,4.03
2023-04-28T17:09:28.105Z,4.57
2023-04-28T17:11:55.401Z,4.03
2023-04-28T17:14:22.443Z,4.68
2023-04-28T17:16:49.527Z,4.20
2023-04-28T17:19:16.847Z,5.60
2023-04-28T17:21:43.885Z,4.70
2023-04-28T17:24:10.796Z,5.00
2023-04-28T17:26:37.813Z,5.78
2023-04-28T17:29:04.884Z,5.13
2023-04-28T17:31:32.047Z,4.63
2023-04-28T17:34:00.770Z,5.47
2023-04-28T17:36:28.683Z,5.05
2023-04-28T17:38:56.154Z,5.45
2023-04-28T17:41:23.552Z,5.75
2023-04-28T17:43:54.199Z,5.00
2023-04-28T17:46:22.197Z,5.80
2023-04-28T17:48:49.692Z,5.72
2023-04-28T17:51:16.789Z,6.13
2023-04-28T17:53:46.368Z,6.60
2023-04-28T17:56:13.371Z,7.45
2023-04-28T17:58:40.696Z,7.53
2023-04-28T18:01:09.221Z,7.32
2023-04-28T18:03:38.074Z,7.80
2023-04-28T18:06:07.498Z,7.80
2023-04-28T18:08:35.671Z,9.20
2023-04-28T18:11:03.562Z,9.07
2023-04-28T18:13:30.556Z,20.95
2023-04-28T18:15:57.550Z,12.90
2023-04-28T18:18:24.933Z,24.63
2023-04-28T18:20:58.266Z,14.85
2023-04-28T18:23:26.635Z,10.85
2023-04-28T18:25:53.617Z,10.23
2023-04-28T18:28:20.839Z,10.82
2023-04-28T18:30:47.757Z,9.30
2023-04-28T18:33:14.762Z,9.95
2023-04-28T18:35:41.800Z,11.52
2023-04-28T18:38:08.804Z,10.18
2023-04-28T18:40:39.785Z,10.13
2023-04-28T18:43:07.755Z,11.43
2023-04-28T18:45:37.071Z,14.13
2023-04-28T18:48:04.622Z,12.50
2023-04-28T18:50:34.969Z,11.98
2023-04-28T18:53:04.178Z,14.15
2023-04-28T18:55:33.651Z,13.30
2023-04-28T18:58:02.312Z,14.52
2023-04-28T19:00:29.467Z,14.52
2023-04-28T19:02:56.780Z,14.88
2023-04-28T19:05:24.177Z,14.30
2023-04-28T19:07:51.280Z,14.85
2023-04-28T19:10:18.304Z,15.45
2023-04-28T19:12:45.370Z,15.27
2023-04-28T19:15:12.589Z,15.85
2023-04-28T19:17:39.697Z,16.67
2023-04-28T19:20:07.498Z,15.85
2023-04-28T19:22:41.527Z,16.77
2023-04-28T19:25:09.088Z,18.25
2023-04-28T19:27:38.207Z,17.73
2023-04-28T19:30:07.604Z,17.35
2023-04-28T19:32:35.174Z,18.77
2023-04-28T19:35:04.138Z,18.05
2023-04-28T19:37:31.811Z,18.95
2023-04-28T19:39:59.211Z,19.08
2023-04-28T19:42:26.317Z,19.48
2023-04-28T19:44:58.409Z,20.20
2023-04-28T19:47:27.302Z,19.05
2023-04-28T19:49:54.709Z,18.77
2023-04-28T19:52:22.820Z,20.13
2023-04-28T19:54:50.564Z,19.20
2023-04-28T19:57:18.787Z,20.63
2023-04-28T19:59:47.581Z,19.38
2023-04-28T20:02:15.892Z,20.48
2023-04-28T20:04:43.129Z,20.08
2023-04-28T20:07:10.833Z,19.52
2023-04-28T20:09:38.729Z,21.83
2023-04-28T20:12:07.703Z,22.00
2023-04-28T20:14:36.047Z,22.33
2023-04-28T20:17:04.278Z,22.85
2023-04-28T20:19:31.417Z,23.20
2023-04-28T20:21:58.456Z,21.80
2023-04-28T20:24:25.960Z,22.55
2023-04-28T20:26:54.702Z,23.20
2023-04-28T20:29:21.934Z,22.50
2023-04-28T20:31:49.022Z,24.38
2023-04-28T20:34:17.252Z,22.88
2023-04-28T20:36:44.287Z,24.35
2023-04-28T20:39:12.403Z,23.27
2023-04-28T20:41:41.123Z,25.38
2023-04-28T20:44:08.670Z,24.75
2023-04-28T20:46:36.380Z,25.98
2023-04-28T20:49:04.328Z,25.92
2023-04-28T20:51:36.162Z,26.52
2023-04-28T20:54:04.362Z,27.33
2023-04-28T20:56:31.302Z,27.48
2023-04-28T20:58:58.451Z,26.80
2023-04-28T21:01:25.666Z,28.80
2023-04-28T21:03:52.907Z,28.52
2023-04-28T21:06:19.945Z,29.67
2023-04-28T21:08:47.009Z,30.05
2023-04-28T21:11:18.121Z,31.48
2023-04-28T21:13:45.529Z,31.33
2023-04-28T21:16:20.225Z,33.33
2023-04-28T21:18:49.137Z,33.90
2023-04-28T21:21:16.583Z,33.03
2023-04-28T21:23:43.636Z,31.52
2023-04-28T21:26:10.736Z,33.53
2023-04-28T21:28:39.889Z,29.00
2023-04-28T21:31:07.394Z,27.90
2023-04-28T21:33:34.458Z,25.77
2023-04-28T21:36:07.365Z,25.40
2023-04-28T21:38:35.165Z,25.15
2023-04-28T21:41:02.362Z,25.20
2023-04-28T21:43:29.521Z,23.95
2023-04-28T21:45:56.493Z,23.13
2023-04-28T21:48:23.551Z,23.45
2023-04-28T21:50:50.539Z,23.33
2023-04-28T21:53:17.650Z,21.63
2023-04-28T21:55:45.031Z,17.20
2023-04-28T21:58:12.345Z,17.48
2023-04-28T22:00:43.353Z,16.20
2023-04-28T22:03:11.222Z,14.43
2023-04-28T22:05:40.310Z,14.95
2023-04-28T22:08:07.762Z,14.05
2023-04-28T22:10:35.082Z,14.05
2023-04-28T22:13:02.578Z,16.23
2023-04-28T22:15:29.755Z,14.70
2023-04-28T22:17:58.205Z,15.75
2023-04-28T22:20:25.204Z,15.23
2023-04-28T22:22:52.695Z,15.77
2023-04-28T22:25:19.971Z,15.77
2023-04-28T22:27:46.979Z,17.15
2023-04-28T22:30:14.225Z,16.58
2023-04-28T22:32:44.670Z,17.52
2023-04-28T22:35:12.749Z,18.27
2023-04-28T22:37:40.360Z,19.20
2023-04-28T22:40:08.530Z,19.13
2023-04-28T22:42:37.082Z,18.73
2023-04-28T22:45:04.615Z,21.15
2023-04-28T22:47:31.573Z,21.60
2023-04-28T22:49:59.464Z,20.88
2023-04-28T22:52:26.668Z,20.67
2023-04-28T22:54:53.678Z,21.23
2023-04-28T22:57:20.735Z,22.45
2023-04-28T22:59:47.707Z,22.23
2023-04-28T23:02:14.665Z,20.90
2023-04-28T23:04:42.033Z,21.65
2023-04-28T23:07:09.166Z,21.92
2023-04-28T23:09:37.231Z,21.13
2023-04-28T23:12:04.811Z,23.58
2023-04-28T23:14:32.977Z,24.83
2023-04-28T23:17:00.648Z,28.20
2023-04-28T23:19:27.648Z,28.75
2023-04-28T23:21:54.704Z,29.45
2023-04-28T23:24:21.688Z,31.13
2023-04-28T23:26:48.571Z,29.42
2023-04-28T23:29:15.690Z,29.52
2023-04-28T23:31:42.716Z,26.15
2023-04-28T23:34:09.806Z,27.58
2023-04-28T23:36:37.893Z,26.75
2023-04-28T23:39:04.934Z,27.50
2023-04-28T23:41:31.856Z,27.73
2023-04-28T23:43:58.879Z,27.85
2023-04-28T23:46:25.963Z,26.65
2023-04-28T23:48:53.090Z,24.73
2023-04-28T23:51:20.269Z,22.85
2023-04-28T23:53:48.071Z,23.48
2023-04-28T23:56:15.020Z,22.50
2023-04-28T23:58:42.323Z,22.38
